NCAR-RAP Real-Time Weather Data

Output produced by METARs form (23 January 2018  15:39 UTC)
found at http://weather.rap.ucar.edu/surface/
 
RJOA 231300Z 29007KT 9999 VCSH FEW015 BKN035 M02/M08 Q1015
RJOA 231200Z 29007KT 9999 FEW020 BKN035 M02/M09 Q1015
RJOA 231100Z 30011KT 9999 VCSH FEW020 BKN035 M01/M10 Q1015
RJOA 231000Z 29004KT 260V320 9999 VCSH FEW020 BKN035 M01/M09 Q1015
RJOA 230900Z 30006KT 9999 FEW020 SCT035 M01/M09 Q1014
RJOA 230800Z 29009KT 9999 VCSH FEW010 SCT025 M00/M08 Q1014
RJOA 230700Z 29012KT 9999 VCSH FEW010 SCT025 00/M05 Q1014
RJOA 230621Z 31011KT 280V350 5000 -SHSN FEW007 SCT015 BKN025 00/M02 Q1013 RMK 1ST007 3CU015 6CU025 A2994
RJOA 230611Z 31014KT 4000 -SHSN FEW007 SCT015 BKN025 00/M01 Q1013 RMK 1ST007 3CU015 6CU025 A2993
RJOA 230606Z 31016KT 2500 -SHSN FEW007 SCT010 BKN020 00/M02 Q1013 RMK 1ST007 3CU010 7CU020 A2993
RJOA 230600Z 32015KT 1500 R10/P1800N -SHSN FEW007 SCT010 BKN020 00/M02 Q1013
RJOA 230549Z 33015KT 3000 R28/P1800N -SHSN FEW015 BKN030 01/M02 Q1013 RMK 1CU015 7CU030 A2993 1500N
RJOA 230546Z 33015KT 4000 -SHSN FEW015 BKN030 01/M02 Q1013 RMK 1CU015 7CU030 A2992 2000N
RJOA 230500Z 29015G26KT 9999 FEW020 BKN040 04/M07 Q1012
RJOA 230401Z 28020G30KT 9999 FEW020 SCT040 05/M07 Q1011 RMK 1CU020 3CU040 A2988
RJOA 230400Z 28021KT 9999 FEW020 SCT040 05/M07 Q1011
RJOA 230300Z 29024G38KT 9999 FEW020 SCT040 05/M06 Q1012
RJOA 230249Z 28026G39KT 9999 -SHSN FEW015 SCT040 04/M06 Q1012 RMK 1CU015 4CU040 A2990 MOD TURB OBS AT 0238Z 25NM NE RJOA BTN 10000FT AND 8000FT IN DES B738
RJOA 230207Z 29016G30KT 9999 FEW015 SCT040 06/M03 Q1012 RMK 1CU015 4CU040 A2990
RJOA 230200Z 29015KT 9999 FEW015 SCT040 06/M02 Q1012
RJOA 230100Z 27012KT 9999 FEW015 SCT040 04/M00 Q1012
RJOA 230000Z 27009KT 6000 BCFG FEW000 03/02 Q1012
RJOA 222300Z 29007KT 260V340 5000 BCFG BR FEW000 SCT010 02/02 Q1011
RJOA 222200Z 28009KT 4000 BCFG BR FEW000 SCT010 BKN020 02/02 Q1011
RJOA 222110Z 30007KT 5000 BCFG BR FEW000 SCT010 BKN050 02/02 Q1010 RMK 1ST000 3CU010 5SC050 A2984 FG BANK SE AND SW-W
RJOA 221315Z 28003KT 0600 R10/0200V0300N FG FEW000 SCT001 BKN002 M02/M02 Q1012 RMK 1ST000 3ST001 5ST002 A2989
RJOA 221300Z 29002KT 2000 R10/0250V0450N PRFG BR FEW000 SCT002 M02/M02 Q1011
RJOA 221228Z VRB02KT 2000 R10/0200N MIFG BR FEW000 SCT002 M01/M01 Q1011 RMK 1ST000 3ST002 A2988 FG ON RWY
RJOA 221214Z 30005KT 280V340 3000 R10/0300VP1800D BCFG BR FEW000 SCT002 M01/M01 Q1012 RMK 1ST000 3ST002 A2989 1200W FG E-SE AND SW-W
RJOA 221212Z 30005KT 280V340 3000 R10/0300VP1800D BCFG BR FEW000 SCT002 M01/M01 Q1012 RMK 1ST000 3ST002 A2989 1200W FG E-SE AND SW-W
RJOA 221200Z 29003KT 4000 BCFG BR FEW000 SCT002 M01/M01 Q1012
RJOA 221112Z 28002KT 3000 R10/0700VP1800U BCFG BR FEW000 SCT002 M00/M00 Q1012 RMK 1ST000 3ST002 A2989 FG E-SE AND SW-W
RJOA 221100Z 26001KT 3000 R10/0600VP1800D BCFG BR FEW000 SCT002 00/00 Q1011
RJOA 221047Z 31001KT 3000 R10/0800VP1800U BCFG BR FEW000 SCT002 00/00 Q1012 RMK 1ST000 3ST002 A2989 FG E-SE AND SW-W
RJOA 221042Z 33001KT 2000 R10/0750VP1800U BCFG BR FEW000 SCT002 M00/M00 Q1012 RMK 1ST000 3ST002 A2989 FG E-SE AND SW-W
RJOA 221035Z 36002KT 1600 R10/0300V0900U BCFG BR FEW000 BKN002 M01/M01 Q1012 RMK 1ST000 5ST002 A2989 FG ALL QUAD
RJOA 221029Z 35002KT 0800 R10/0300N FG FEW000 BKN001 BKN002 M01/M01 Q1012 RMK 1ST000 5ST001 6ST002 A2989
RJOA 221024Z VRB02KT 1500 R10/0300N -SHSN BCFG BR FEW000 SCT001 BKN002 M01/M01 Q1012 RMK 1ST000 4ST001 5ST002 A2989 FG ALL QUAD
RJOA 221010Z 26002KT 4000 R10/0400VP1800D PRFG FEW000 M00/M00 Q1012 RMK 2ST000 A2989 1200W FG ON RWY10
RJOA 221000Z 28003KT 6000 PRFG FEW000 00/00 Q1012
RJOA 220900Z 30005KT 8000 PRFG FEW000 00/00 Q1012
RJOA 220800Z 30004KT 280V340 9999 R10/P1800N BCFG FEW000 01/01 Q1011
RJOA 220741Z 28003KT 5000 R10/0400VP1800D PRFG BR FEW000 SCT025 02/01 Q1011 RMK 1ST000 3CU025 A2987 1500W FG ON RWY10
RJOA 220700Z VRB01KT 9999 R10/P1800N BCFG FEW000 SCT012 BKN040 01/00 Q1011
RJOA 220616Z 33004KT 5000 -SHRASN BR FEW001 SCT006 BKN012 01/00 Q1011 RMK 1ST001 3ST006 6CU012 A2986
RJOA 220600Z 36003KT 320V040 3000 -SN BR FEW001 SCT006 BKN010 01/00 Q1011
RJOA 220500Z 35007KT 330V080 1600 -SN BR FEW001 SCT003 BKN006 01/00 Q1010
RJOA 220400Z 36004KT 330V050 1200 R10/1400VP1800U -SN BR FEW001 SCT003 BKN005 01/00 Q1011
RJOA 220328Z 29002KT 0800 R10/0600VP1800D SN FEW001 SCT003 BKN005 00/00 Q1011 RMK 1ST001 3ST003 6ST005 A2987
RJOA 220325Z VRB02KT 0900 R10/0700VP1800D SN FEW001 SCT003 BKN005 00/00 Q1011 RMK 1ST001 3ST003 6ST005 A2987
RJOA 220310Z 36003KT 330V070 1200 R10/1500VP1800U -SN BR FEW001 SCT003 BKN006 00/00 Q1011 RMK 1ST001 3ST003 6ST006 A2988 P/FR
RJOA 220304Z VRB02KT 0800 R10/0700VP1800U SN FEW001 SCT003 BKN006 00/00 Q1011 RMK 1ST001 3ST003 6ST006 A2988 P/FR
RJOA 220300Z VRB02KT 0500 R10/0600V1600U SN FEW001 SCT003 BKN006 00/00 Q1012
RJOA 220239Z VRB02KT 0800 R10/0500VP1800D SN FEW001 SCT003 BKN006 00/00 Q1013 RMK 1ST001 3ST003 6ST006 A2992
RJOA 220235Z 35003KT 290V050 0800 R10/0600VP1800D SN FEW001 SCT005 BKN008 01/00 Q1013 RMK 1ST001 3ST005 6ST008 A2992
RJOA 220232Z 36003KT 290V050 0800 R10/0800VP1800D SN FEW001 SCT005 BKN008 00/00 Q1013 RMK 1ST001 3ST005 6ST008 A2992
RJOA 220200Z 05005KT 1400 R10/P1800N -SN BR FEW001 SCT005 BKN008 00/00 Q1013
RJOA 220138Z 06006KT 2000 -SN BR FEW001 SCT005 BKN008 00/00 Q1014 RMK 1ST001 3ST005 6ST008 A2996
RJOA 220128Z 06006KT 1200 R10/P1800N -SN BR FEW001 SCT005 BKN008 00/00 Q1014 RMK 1ST001 3ST005 6ST008 A2996
RJOA 220100Z 07004KT 0800 R10/P1800N SN FEW001 SCT003 BKN005 00/M00 Q1015
RJOA 220009Z 05004KT 0900 R10/P1800N SN FEW001 SCT003 BKN005 00/M00 Q1015 RMK 1ST001 3ST003 6ST005 A2999
RJOA 220000Z 06005KT 020V080 1400 R10/P1800N -SN BR FEW002 SCT005 BKN007 01/M00 Q1015
RJOA 212349Z 06006KT 1400 R10/P1800N -SN BR FEW002 SCT005 BKN008 01/M00 Q1016 RMK 1ST002 3ST005 6ST008 A3000
RJOA 212333Z 05005KT 2000 -SN BR FEW002 SCT005 BKN008 01/M00 Q1015 RMK 1ST002 3ST005 6ST008 A3000
RJOA 212311Z 06008KT 1400 R10/P1800N -SN BR FEW002 SCT005 BKN007 02/M01 Q1015 RMK 1ST002 3ST005 6ST007 A2999
RJOA 212306Z 06008KT 2000 -SN BR FEW002 SCT005 BKN010 02/M02 Q1015 RMK 1ST002 3ST005 6CU010 A3000
RJOA 212300Z 06008KT 3000 -SN BR FEW005 BKN010 BKN015 03/M02 Q1015
RJOA 212200Z 07009KT 9999 FEW020 BKN045 03/M03 Q1015
RJOA 212110Z 07006KT 9999 FEW020 BKN090 03/M03 Q1015 RMK 1CU020 7AC090 A2998
RJOA 211300Z 04005KT 9999 FEW025 SCT160 BKN/// 04/M05 Q1020
RJOA 211200Z 01009KT 9999 FEW030 SCT150 BKN/// 04/M05 Q1019
RJOA 211100Z 01009KT 350V050 9999 FEW030 BKN150 BKN/// 04/M04 Q1020
RJOA 211000Z 34005KT 310V010 9999 FEW030 BKN160 BKN/// 05/M04 Q1020
RJOA 210900Z 36003KT 330V050 9999 FEW035 BKN/// 06/M05 Q1020
RJOA 210800Z 33006KT 290V360 9999 FEW035 BKN/// 06/M06 Q1019
RJOA 210700Z 34007KT 300V020 9999 FEW020 BKN/// 07/M04 Q1019
RJOA 210600Z 30010KT 280V350 9999 FEW020 SCT030 BKN/// 08/M04 Q1019
RJOA 210500Z 34008KT 9999 FEW020 SCT030 08/M02 Q1019
RJOA 210400Z 35010KT 320V030 9999 FEW020 SCT035 08/M01 Q1019